Terminal Aerodrome Forecast
Issued by NWS Charleston, WV

Current Version | Previous Version | Graphics & Text | Print | Product List | Glossary On
Versions: 1 2 3 4 5 6 7 8 9 10 11 12 13 14 15 16 17 18 19 20 21 22 23 24 25 26 27
000
FTUS41 KRLX 220520
TAFEKN
TAF
KEKN 220520Z 2206/2306 VRB03KT P6SM OVC050
     FM220800 VRB03KT P6SM SHRA OVC040
      TEMPO 2208/2211 4SM SHRA OVC025
     FM221100 VRB03KT P6SM OVC030
     FM221500 01006KT 4SM SHRA OVC008
     FM230000 08005KT 5SM SHRA OVC008
     FM230200 08005KT P6SM OVC015
     FM230500 08005KT P6SM OVC020=

USA.gov is the U.S. government's official web portal to all federal, state and local government web resources and services.